Ekin, Indiana
Current Conditions -  °F | °C
As of 8:15 AM on Tuesday 21 Oct 2014 (Local Time) from KTYQ Reporting Station
Overcast Overcast  
Wind Chill: 46°   Ceiling: 4800
Heat Index: 48°   Visibility: 10mi
Dew Point: 44°   Wind: 5mph
Humidity: 85%   Direction: 320°NW
Pressure: 30.04"   Gusts: NA
Location:  40.1832°N, 85.9359°W
Report Text: KTYQ 211215Z AUTO 32004KT 10SM OVC048 09/07 A3004 RMK AO2 T00900066
Loading
Personal Weather Stations






























Interactive Weather Map New forecast layout! Learn more

10-Day Weather Forecast

Advertisements
Track Severe Weather on mobile